Time;durP1;ratioP1;P1;durP2;ratioP2;P2;SDS_P1;SDS_P2;PMS_P1;PMS_P2;Temp;Humidity;BMP_temperature;BMP_pressure;BME280_temperature;BME280_humidity;BME280_pressure;Samples;Min_cycle;Max_cycle;Signal;HPM_P1;HPM_P2
2019/11/03 00:00:37;;;;;;;7.15;6.299999;;;;;;;7.29;99.24805;93196.98;;;;
2019/11/03 00:01:38;;;;;;;7.15;6.299999;;;;;;;7.29;99.24805;93196.98;;;;
2019/11/03 00:02:39;;;;;;;7.15;6.299999;;;;;;;7.29;99.24805;93196.98;;;;
2019/11/03 00:03:41;;;;;;;7.15;6.299999;;;;;;;7.29;99.24805;93196.98;;;;
2019/11/03 00:04:42;;;;;;;7.15;6.299999;;;;;;;7.29;99.24805;93196.98;;;;
2019/11/03 00:05:43;;;;;;;7.199999;6.349999;;;;;;;7.42;99.33105;93197.28;;;;
2019/11/03 00:06:44;;;;;;;7.199999;6.349999;;;;;;;7.42;99.33105;93197.28;;;;
2019/11/03 00:07:45;;;;;;;7.199999;6.349999;;;;;;;7.42;99.33105;93197.28;;;;
2019/11/03 00:08:47;;;;;;;7.199999;6.349999;;;;;;;7.42;99.33105;93197.28;;;;
2019/11/03 00:09:48;;;;;;;7.199999;6.349999;;;;;;;7.42;99.33105;93197.28;;;;
2019/11/03 00:10:49;;;;;;;7.199999;6.349999;;;;;;;7.42;99.33105;93197.28;;;;
2019/11/03 00:11:50;;;;;;;7.199999;6.349999;;;;;;;7.42;99.33105;93197.28;;;;
2019/11/03 00:12:51;;;;;;;7.199999;6.349999;;;;;;;7.42;99.33105;93197.28;;;;
2019/11/03 00:13:52;;;;;;;7.199999;6.349999;;;;;;;7.42;99.33105;93197.28;;;;
2019/11/03 00:14:53;;;;;;;7.199999;6.349999;;;;;;;7.42;99.33105;93197.28;;;;
2019/11/03 00:15:54;;;;;;;6.950001;6.249999;;;;;;;7.53;99.66016;93210.17;;;;
2019/11/03 00:17:16;;;;;;;6.950001;6.249999;;;;;;;7.53;99.66016;93210.17;;;;
2019/11/03 00:18:17;;;;;;;6.950001;6.249999;;;;;;;7.53;99.66016;93210.17;;;;
2019/11/03 00:19:18;;;;;;;6.950001;6.249999;;;;;;;7.53;99.66016;93210.17;;;;
2019/11/03 00:20:20;;;;;;;6.950001;6.249999;;;;;;;7.53;99.66016;93210.17;;;;
2019/11/03 00:21:21;;;;;;;6.950001;6.249999;;;;;;;7.53;99.66016;93210.17;;;;
2019/11/03 00:22:23;;;;;;;6.950001;6.249999;;;;;;;7.53;99.66016;93210.17;;;;
2019/11/03 00:23:24;;;;;;;6.950001;6.249999;;;;;;;7.53;99.66016;93210.17;;;;
2019/11/03 00:24:26;;;;;;;6.950001;6.249999;;;;;;;7.53;99.66016;93210.17;;;;
2019/11/03 00:25:27;;;;;;;6.950001;6.249999;;;;;;;7.53;99.66016;93210.17;;;;
2019/11/03 00:26:28;;;;;;;8.15;6.55;;;;;;;7.62;99.85059;93179.85;;;;
2019/11/03 00:27:29;;;;;;;8.15;6.55;;;;;;;7.62;99.85059;93179.85;;;;
2019/11/03 00:28:30;;;;;;;8.15;6.55;;;;;;;7.62;99.85059;93179.85;;;;
2019/11/03 00:29:31;;;;;;;8.15;6.55;;;;;;;7.62;99.85059;93179.85;;;;
2019/11/03 00:30:32;;;;;;;8.15;6.55;;;;;;;7.62;99.85059;93179.85;;;;
2019/11/03 00:31:52;;;;;;;8.15;6.55;;;;;;;7.62;99.85059;93179.85;;;;
2019/11/03 00:32:53;;;;;;;8.15;6.55;;;;;;;7.62;99.85059;93179.85;;;;
2019/11/03 00:33:54;;;;;;;8.15;6.55;;;;;;;7.62;99.85059;93179.85;;;;
2019/11/03 00:35:39;;;;;;;8.15;6.55;;;;;;;7.62;99.85059;93179.85;;;;
2019/11/03 00:36:41;;;;;;;8.15;6.55;;;;;;;7.62;99.85059;93179.85;;;;
2019/11/03 00:37:42;;;;;;;7.55;6.050001;;;;;;;7.61;100;93186.27;;;;
2019/11/03 00:38:43;;;;;;;7.55;6.050001;;;;;;;7.61;100;93186.27;;;;
2019/11/03 00:39:44;;;;;;;7.55;6.050001;;;;;;;7.61;100;93186.27;;;;
2019/11/03 00:40:46;;;;;;;7.55;6.050001;;;;;;;7.61;100;93186.27;;;;
2019/11/03 00:41:47;;;;;;;7.55;6.050001;;;;;;;7.61;100;93186.27;;;;
2019/11/03 00:42:48;;;;;;;7.55;6.050001;;;;;;;7.61;100;93186.27;;;;
2019/11/03 00:43:49;;;;;;;7.55;6.050001;;;;;;;7.61;100;93186.27;;;;
2019/11/03 00:44:50;;;;;;;7.55;6.050001;;;;;;;7.61;100;93186.27;;;;
2019/11/03 00:45:51;;;;;;;7.55;6.050001;;;;;;;7.61;100;93186.27;;;;
2019/11/03 00:46:52;;;;;;;7.55;6.050001;;;;;;;7.61;100;93186.27;;;;
2019/11/03 00:47:54;;;;;;;8.1;5.599999;;;;;;;7.38;100;93167.19;;;;
2019/11/03 00:48:55;;;;;;;8.1;5.599999;;;;;;;7.38;100;93167.19;;;;
2019/11/03 00:49:56;;;;;;;8.1;5.599999;;;;;;;7.38;100;93167.19;;;;
2019/11/03 00:50:57;;;;;;;8.1;5.599999;;;;;;;7.38;100;93167.19;;;;
2019/11/03 00:51:58;;;;;;;8.1;5.599999;;;;;;;7.38;100;93167.19;;;;
2019/11/03 00:53:00;;;;;;;8.1;5.599999;;;;;;;7.38;100;93167.19;;;;
2019/11/03 00:54:01;;;;;;;8.1;5.599999;;;;;;;7.38;100;93167.19;;;;
2019/11/03 00:55:02;;;;;;;8.1;5.599999;;;;;;;7.38;100;93167.19;;;;
2019/11/03 00:56:03;;;;;;;8.1;5.599999;;;;;;;7.38;100;93167.19;;;;
2019/11/03 00:57:04;;;;;;;8.1;5.599999;;;;;;;7.38;100;93167.19;;;;
2019/11/03 00:58:05;;;;;;;6.55;5.85;;;;;;;7.34;100;93151.37;;;;
2019/11/03 00:59:07;;;;;;;6.55;5.85;;;;;;;7.34;100;93151.37;;;;
2019/11/03 01:00:08;;;;;;;6.55;5.85;;;;;;;7.34;100;93151.37;;;;
2019/11/03 01:01:10;;;;;;;6.55;5.85;;;;;;;7.34;100;93151.37;;;;
2019/11/03 01:02:12;;;;;;;6.55;5.85;;;;;;;7.34;100;93151.37;;;;
2019/11/03 01:03:13;;;;;;;6.55;5.85;;;;;;;7.34;100;93151.37;;;;
2019/11/03 01:04:14;;;;;;;6.55;5.85;;;;;;;7.34;100;93151.37;;;;
2019/11/03 01:05:15;;;;;;;6.55;5.85;;;;;;;7.34;100;93151.37;;;;
2019/11/03 01:06:16;;;;;;;6.55;5.85;;;;;;;7.34;100;93151.37;;;;
2019/11/03 01:07:17;;;;;;;6.55;5.85;;;;;;;7.34;100;93151.37;;;;
2019/11/03 01:08:18;;;;;;;6.55;5.85;;;;;;;7.34;100;93151.37;;;;
2019/11/03 01:09:20;;;;;;;7.7;6.299999;;;;;;;7.2;100;93123.32;;;;
2019/11/03 01:10:21;;;;;;;7.7;6.299999;;;;;;;7.2;100;93123.32;;;;
2019/11/03 01:11:22;;;;;;;7.7;6.299999;;;;;;;7.2;100;93123.32;;;;
2019/11/03 01:12:23;;;;;;;7.7;6.299999;;;;;;;7.2;100;93123.32;;;;
2019/11/03 01:13:24;;;;;;;7.7;6.299999;;;;;;;7.2;100;93123.32;;;;
2019/11/03 01:14:25;;;;;;;7.7;6.299999;;;;;;;7.2;100;93123.32;;;;
2019/11/03 01:15:27;;;;;;;7.7;6.299999;;;;;;;7.2;100;93123.32;;;;
2019/11/03 01:16:28;;;;;;;7.7;6.299999;;;;;;;7.2;100;93123.32;;;;
2019/11/03 01:17:29;;;;;;;7.7;6.299999;;;;;;;7.2;100;93123.32;;;;
2019/11/03 01:18:30;;;;;;;7.7;6.299999;;;;;;;7.2;100;93123.32;;;;
2019/11/03 01:19:31;;;;;;;7.15;6.15;;;;;;;7.09;100;93124.53;;;;
2019/11/03 01:20:32;;;;;;;7.15;6.15;;;;;;;7.09;100;93124.53;;;;
2019/11/03 01:21:33;;;;;;;7.15;6.15;;;;;;;7.09;100;93124.53;;;;
2019/11/03 01:22:35;;;;;;;7.15;6.15;;;;;;;7.09;100;93124.53;;;;
2019/11/03 01:23:36;;;;;;;7.15;6.15;;;;;;;7.09;100;93124.53;;;;
2019/11/03 01:24:37;;;;;;;7.15;6.15;;;;;;;7.09;100;93124.53;;;;
2019/11/03 01:25:38;;;;;;;7.15;6.15;;;;;;;7.09;100;93124.53;;;;
2019/11/03 01:26:39;;;;;;;7.15;6.15;;;;;;;7.09;100;93124.53;;;;
2019/11/03 01:27:40;;;;;;;7.15;6.15;;;;;;;7.09;100;93124.53;;;;
2019/11/03 01:28:41;;;;;;;7.15;6.15;;;;;;;7.09;100;93124.53;;;;
2019/11/03 01:29:42;;;;;;;7.15;6.15;;;;;;;7.09;100;93124.53;;;;
2019/11/03 01:30:43;;;;;;;9.100001;8.1;;;;;;;7.13;100;93148.27;;;;
2019/11/03 01:31:44;;;;;;;9.100001;8.1;;;;;;;7.13;100;93148.27;;;;
2019/11/03 01:32:46;;;;;;;9.100001;8.1;;;;;;;7.13;100;93148.27;;;;
2019/11/03 01:33:47;;;;;;;9.100001;8.1;;;;;;;7.13;100;93148.27;;;;
2019/11/03 01:34:48;;;;;;;9.100001;8.1;;;;;;;7.13;100;93148.27;;;;
2019/11/03 01:35:49;;;;;;;9.100001;8.1;;;;;;;7.13;100;93148.27;;;;
2019/11/03 01:36:50;;;;;;;9.100001;8.1;;;;;;;7.13;100;93148.27;;;;
2019/11/03 01:37:51;;;;;;;9.100001;8.1;;;;;;;7.13;100;93148.27;;;;
2019/11/03 01:38:52;;;;;;;9.100001;8.1;;;;;;;7.13;100;93148.27;;;;
2019/11/03 01:40:00;;;;;;;9.100001;8.1;;;;;;;7.13;100;93148.27;;;;
2019/11/03 01:41:02;;;;;;;9.749999;8.050001;;;;;;;7.35;100;93123.46;;;;
2019/11/03 01:42:03;;;;;;;9.749999;8.050001;;;;;;;7.35;100;93123.46;;;;
2019/11/03 01:43:05;;;;;;;9.749999;8.050001;;;;;;;7.35;100;93123.46;;;;
2019/11/03 01:44:06;;;;;;;9.749999;8.050001;;;;;;;7.35;100;93123.46;;;;
2019/11/03 01:45:07;;;;;;;9.749999;8.050001;;;;;;;7.35;100;93123.46;;;;
2019/11/03 01:46:08;;;;;;;9.749999;8.050001;;;;;;;7.35;100;93123.46;;;;
2019/11/03 01:47:09;;;;;;;9.749999;8.050001;;;;;;;7.35;100;93123.46;;;;
2019/11/03 01:48:11;;;;;;;9.749999;8.050001;;;;;;;7.35;100;93123.46;;;;
2019/11/03 01:49:12;;;;;;;9.749999;8.050001;;;;;;;7.35;100;93123.46;;;;
2019/11/03 01:50:14;;;;;;;9.749999;8.050001;;;;;;;7.35;100;93123.46;;;;
2019/11/03 01:51:15;;;;;;;8.399999;7.349999;;;;;;;7.46;100;93133.93;;;;
2019/11/03 01:52:16;;;;;;;8.399999;7.349999;;;;;;;7.46;100;93133.93;;;;
2019/11/03 01:53:17;;;;;;;8.399999;7.349999;;;;;;;7.46;100;93133.93;;;;
2019/11/03 01:54:18;;;;;;;8.399999;7.349999;;;;;;;7.46;100;93133.93;;;;
2019/11/03 01:55:20;;;;;;;8.399999;7.349999;;;;;;;7.46;100;93133.93;;;;
2019/11/03 01:56:21;;;;;;;8.399999;7.349999;;;;;;;7.46;100;93133.93;;;;
2019/11/03 01:57:22;;;;;;;8.399999;7.349999;;;;;;;7.46;100;93133.93;;;;
2019/11/03 01:58:23;;;;;;;8.399999;7.349999;;;;;;;7.46;100;93133.93;;;;
2019/11/03 01:59:25;;;;;;;8.399999;7.349999;;;;;;;7.46;100;93133.93;;;;
2019/11/03 02:00:26;;;;;;;8.399999;7.349999;;;;;;;7.46;100;93133.93;;;;
2019/11/03 02:01:27;;;;;;;8.399999;7.349999;;;;;;;7.46;100;93133.93;;;;
2019/11/03 02:02:28;;;;;;;7.45;6.6;;;;;;;7.62;100;93125.72;;;;
2019/11/03 02:03:30;;;;;;;7.45;6.6;;;;;;;7.62;100;93125.72;;;;
2019/11/03 02:04:31;;;;;;;7.45;6.6;;;;;;;7.62;100;93125.72;;;;
2019/11/03 02:05:32;;;;;;;7.45;6.6;;;;;;;7.62;100;93125.72;;;;
2019/11/03 02:06:33;;;;;;;7.45;6.6;;;;;;;7.62;100;93125.72;;;;
2019/11/03 02:07:36;;;;;;;7.45;6.6;;;;;;;7.62;100;93125.72;;;;
2019/11/03 02:08:37;;;;;;;7.45;6.6;;;;;;;7.62;100;93125.72;;;;
2019/11/03 02:09:38;;;;;;;7.45;6.6;;;;;;;7.62;100;93125.72;;;;
2019/11/03 02:10:39;;;;;;;7.45;6.6;;;;;;;7.62;100;93125.72;;;;
2019/11/03 02:11:40;;;;;;;7.45;6.6;;;;;;;7.62;100;93125.72;;;;
2019/11/03 02:12:42;;;;;;;6.450001;4.5;;;;;;;7.67;100;93102.47;;;;
2019/11/03 02:13:43;;;;;;;6.450001;4.5;;;;;;;7.67;100;93102.47;;;;
2019/11/03 02:14:44;;;;;;;6.450001;4.5;;;;;;;7.67;100;93102.47;;;;
2019/11/03 02:15:45;;;;;;;6.450001;4.5;;;;;;;7.67;100;93102.47;;;;
2019/11/03 02:16:47;;;;;;;6.450001;4.5;;;;;;;7.67;100;93102.47;;;;
2019/11/03 02:17:48;;;;;;;6.450001;4.5;;;;;;;7.67;100;93102.47;;;;
2019/11/03 02:18:49;;;;;;;6.450001;4.5;;;;;;;7.67;100;93102.47;;;;
2019/11/03 02:19:50;;;;;;;6.450001;4.5;;;;;;;7.67;100;93102.47;;;;
2019/11/03 02:20:52;;;;;;;6.450001;4.5;;;;;;;7.67;100;93102.47;;;;
2019/11/03 02:21:53;;;;;;;6.450001;4.5;;;;;;;7.67;100;93102.47;;;;
2019/11/03 02:22:54;;;;;;;6.450001;4.5;;;;;;;7.67;100;93102.47;;;;
2019/11/03 02:23:55;;;;;;;5;4.4;;;;;;;7.73;100;93100.47;;;;
2019/11/03 02:24:56;;;;;;;5;4.4;;;;;;;7.73;100;93100.47;;;;
2019/11/03 02:25:57;;;;;;;5;4.4;;;;;;;7.73;100;93100.47;;;;
2019/11/03 02:26:58;;;;;;;5;4.4;;;;;;;7.73;100;93100.47;;;;
2019/11/03 02:28:00;;;;;;;5;4.4;;;;;;;7.73;100;93100.47;;;;
2019/11/03 02:29:01;;;;;;;5;4.4;;;;;;;7.73;100;93100.47;;;;
2019/11/03 02:30:03;;;;;;;5;4.4;;;;;;;7.73;100;93100.47;;;;
2019/11/03 02:31:05;;;;;;;5;4.4;;;;;;;7.73;100;93100.47;;;;
2019/11/03 02:32:06;;;;;;;5;4.4;;;;;;;7.73;100;93100.47;;;;
2019/11/03 02:33:07;;;;;;;5;4.4;;;;;;;7.73;100;93100.47;;;;
2019/11/03 02:34:08;;;;;;;5.55;4.3;;;;;;;7.78;100;93105;;;;
2019/11/03 02:35:09;;;;;;;5.55;4.3;;;;;;;7.78;100;93105;;;;
2019/11/03 02:36:10;;;;;;;5.55;4.3;;;;;;;7.78;100;93105;;;;
2019/11/03 02:37:12;;;;;;;5.55;4.3;;;;;;;7.78;100;93105;;;;
2019/11/03 02:38:13;;;;;;;5.55;4.3;;;;;;;7.78;100;93105;;;;
2019/11/03 02:39:14;;;;;;;5.55;4.3;;;;;;;7.78;100;93105;;;;
2019/11/03 02:40:15;;;;;;;5.55;4.3;;;;;;;7.78;100;93105;;;;
2019/11/03 02:41:17;;;;;;;5.55;4.3;;;;;;;7.78;100;93105;;;;
2019/11/03 02:42:19;;;;;;;5.55;4.3;;;;;;;7.78;100;93105;;;;
2019/11/03 02:43:21;;;;;;;5.55;4.3;;;;;;;7.78;100;93105;;;;
2019/11/03 02:44:22;;;;;;;4.2;3.4;;;;;;;7.93;100;93105.39;;;;
2019/11/03 02:45:23;;;;;;;4.2;3.4;;;;;;;7.93;100;93105.39;;;;
2019/11/03 02:46:25;;;;;;;4.2;3.4;;;;;;;7.93;100;93105.39;;;;
2019/11/03 02:47:26;;;;;;;4.2;3.4;;;;;;;7.93;100;93105.39;;;;
2019/11/03 02:48:27;;;;;;;4.2;3.4;;;;;;;7.93;100;93105.39;;;;
2019/11/03 02:49:28;;;;;;;4.2;3.4;;;;;;;7.93;100;93105.39;;;;
2019/11/03 02:50:29;;;;;;;4.2;3.4;;;;;;;7.93;100;93105.39;;;;
2019/11/03 02:51:30;;;;;;;4.2;3.4;;;;;;;7.93;100;93105.39;;;;
2019/11/03 02:52:31;;;;;;;4.2;3.4;;;;;;;7.93;100;93105.39;;;;
2019/11/03 02:53:33;;;;;;;4.2;3.4;;;;;;;7.93;100;93105.39;;;;
2019/11/03 02:54:34;;;;;;;4.2;3.4;;;;;;;7.93;100;93105.39;;;;
2019/11/03 02:55:35;;;;;;;5.100001;3.9;;;;;;;8.01;100;93106.69;;;;
2019/11/03 02:56:36;;;;;;;5.100001;3.9;;;;;;;8.01;100;93106.69;;;;
2019/11/03 02:57:37;;;;;;;5.100001;3.9;;;;;;;8.01;100;93106.69;;;;
2019/11/03 02:58:39;;;;;;;5.100001;3.9;;;;;;;8.01;100;93106.69;;;;
2019/11/03 02:59:40;;;;;;;5.100001;3.9;;;;;;;8.01;100;93106.69;;;;
2019/11/03 03:00:41;;;;;;;5.100001;3.9;;;;;;;8.01;100;93106.69;;;;
2019/11/03 03:01:42;;;;;;;5.100001;3.9;;;;;;;8.01;100;93106.69;;;;
2019/11/03 03:02:43;;;;;;;5.100001;3.9;;;;;;;8.01;100;93106.69;;;;
2019/11/03 03:03:45;;;;;;;5.100001;3.9;;;;;;;8.01;100;93106.69;;;;
2019/11/03 03:04:46;;;;;;;5.100001;3.9;;;;;;;8.01;100;93106.69;;;;
2019/11/03 03:05:47;;;;;;;4.25;3.5;;;;;;;8.11;100;93071.2;;;;
2019/11/03 03:06:48;;;;;;;4.25;3.5;;;;;;;8.11;100;93071.2;;;;
2019/11/03 03:07:50;;;;;;;4.25;3.5;;;;;;;8.11;100;93071.2;;;;
2019/11/03 03:08:51;;;;;;;4.25;3.5;;;;;;;8.11;100;93071.2;;;;
2019/11/03 03:09:52;;;;;;;4.25;3.5;;;;;;;8.11;100;93071.2;;;;
2019/11/03 03:10:53;;;;;;;4.25;3.5;;;;;;;8.11;100;93071.2;;;;
2019/11/03 03:11:54;;;;;;;4.25;3.5;;;;;;;8.11;100;93071.2;;;;
2019/11/03 03:12:56;;;;;;;4.25;3.5;;;;;;;8.11;100;93071.2;;;;
2019/11/03 03:13:57;;;;;;;4.25;3.5;;;;;;;8.11;100;93071.2;;;;
2019/11/03 03:14:58;;;;;;;4.25;3.5;;;;;;;8.11;100;93071.2;;;;
2019/11/03 03:15:59;;;;;;;4.85;3.9;;;;;;;8.05;100;93052.55;;;;
2019/11/03 03:17:01;;;;;;;4.85;3.9;;;;;;;8.05;100;93052.55;;;;
2019/11/03 03:18:02;;;;;;;4.85;3.9;;;;;;;8.05;100;93052.55;;;;
2019/11/03 03:19:03;;;;;;;4.85;3.9;;;;;;;8.05;100;93052.55;;;;
2019/11/03 03:20:04;;;;;;;4.85;3.9;;;;;;;8.05;100;93052.55;;;;
2019/11/03 03:21:06;;;;;;;4.85;3.9;;;;;;;8.05;100;93052.55;;;;
2019/11/03 03:22:07;;;;;;;4.85;3.9;;;;;;;8.05;100;93052.55;;;;
2019/11/03 03:23:08;;;;;;;4.85;3.9;;;;;;;8.05;100;93052.55;;;;
2019/11/03 03:24:09;;;;;;;4.85;3.9;;;;;;;8.05;100;93052.55;;;;
2019/11/03 03:25:10;;;;;;;4.85;3.9;;;;;;;8.05;100;93052.55;;;;
2019/11/03 03:26:12;;;;;;;4.85;3.9;;;;;;;8.05;100;93052.55;;;;
2019/11/03 03:27:22;;;;;;;6.7;4.95;;;;;;;8.07;100;93088.95;;;;
2019/11/03 03:28:23;;;;;;;6.7;4.95;;;;;;;8.07;100;93088.95;;;;
2019/11/03 03:29:24;;;;;;;6.7;4.95;;;;;;;8.07;100;93088.95;;;;
2019/11/03 03:30:25;;;;;;;6.7;4.95;;;;;;;8.07;100;93088.95;;;;
2019/11/03 03:31:26;;;;;;;6.7;4.95;;;;;;;8.07;100;93088.95;;;;
2019/11/03 03:32:27;;;;;;;6.7;4.95;;;;;;;8.07;100;93088.95;;;;
2019/11/03 03:33:29;;;;;;;6.7;4.95;;;;;;;8.07;100;93088.95;;;;
2019/11/03 03:34:30;;;;;;;6.7;4.95;;;;;;;8.07;100;93088.95;;;;
2019/11/03 03:35:31;;;;;;;6.7;4.95;;;;;;;8.07;100;93088.95;;;;
2019/11/03 03:36:32;;;;;;;6.7;4.95;;;;;;;8.07;100;93088.95;;;;
2019/11/03 03:37:33;;;;;;;6.75;4.9;;;;;;;8.21;100;93055.96;;;;
2019/11/03 03:38:34;;;;;;;6.75;4.9;;;;;;;8.21;100;93055.96;;;;
2019/11/03 03:39:36;;;;;;;6.75;4.9;;;;;;;8.21;100;93055.96;;;;
2019/11/03 03:40:37;;;;;;;6.75;4.9;;;;;;;8.21;100;93055.96;;;;
2019/11/03 03:41:38;;;;;;;6.75;4.9;;;;;;;8.21;100;93055.96;;;;
2019/11/03 03:42:39;;;;;;;6.75;4.9;;;;;;;8.21;100;93055.96;;;;
2019/11/03 03:43:41;;;;;;;6.75;4.9;;;;;;;8.21;100;93055.96;;;;
2019/11/03 03:44:42;;;;;;;6.75;4.9;;;;;;;8.21;100;93055.96;;;;
2019/11/03 03:45:44;;;;;;;6.75;4.9;;;;;;;8.21;100;93055.96;;;;
2019/11/03 03:46:45;;;;;;;6.75;4.9;;;;;;;8.21;100;93055.96;;;;
2019/11/03 03:47:47;;;;;;;6.75;4.9;;;;;;;8.21;100;93055.96;;;;
2019/11/03 03:48:50;;;;;;;6.5;5.55;;;;;;;8.43;100;93046.49;;;;
2019/11/03 03:49:57;;;;;;;6.5;5.55;;;;;;;8.43;100;93046.49;;;;
2019/11/03 03:51:02;;;;;;;6.5;5.55;;;;;;;8.43;100;93046.49;;;;
2019/11/03 03:52:06;;;;;;;6.5;5.55;;;;;;;8.43;100;93046.49;;;;
2019/11/03 03:53:12;;;;;;;6.5;5.55;;;;;;;8.43;100;93046.49;;;;
2019/11/03 03:54:17;;;;;;;6.5;5.55;;;;;;;8.43;100;93046.49;;;;
2019/11/03 03:55:19;;;;;;;6.5;5.55;;;;;;;8.43;100;93046.49;;;;
2019/11/03 03:56:37;;;;;;;6.5;5.55;;;;;;;8.43;100;93046.49;;;;
2019/11/03 03:58:06;;;;;;;6.5;5.55;;;;;;;8.43;100;93046.49;;;;
2019/11/03 03:59:29;;;;;;;5.400001;4.900001;;;;;;;8.6;100;93073.41;;;;
2019/11/03 04:00:40;;;;;;;5.400001;4.900001;;;;;;;8.6;100;93073.41;;;;
2019/11/03 04:01:44;;;;;;;5.400001;4.900001;;;;;;;8.6;100;93073.41;;;;
2019/11/03 04:02:50;;;;;;;5.400001;4.900001;;;;;;;8.6;100;93073.41;;;;
2019/11/03 04:04:32;;;;;;;5.400001;4.900001;;;;;;;8.6;100;93073.41;;;;
2019/11/03 04:05:44;;;;;;;5.400001;4.900001;;;;;;;8.6;100;93073.41;;;;
2019/11/03 04:07:12;;;;;;;5.400001;4.900001;;;;;;;8.6;100;93073.41;;;;
2019/11/03 04:08:56;;;;;;;5.400001;4.900001;;;;;;;8.6;100;93073.41;;;;
2019/11/03 04:09:57;;;;;;;5.450001;4.799999;;;;;;;8.8;100;93050.95;;;;
2019/11/03 04:10:59;;;;;;;5.450001;4.799999;;;;;;;8.8;100;93050.95;;;;
2019/11/03 04:12:00;;;;;;;5.450001;4.799999;;;;;;;8.8;100;93050.95;;;;
2019/11/03 04:13:01;;;;;;;5.450001;4.799999;;;;;;;8.8;100;93050.95;;;;
2019/11/03 04:14:02;;;;;;;5.450001;4.799999;;;;;;;8.8;100;93050.95;;;;
2019/11/03 04:15:04;;;;;;;5.450001;4.799999;;;;;;;8.8;100;93050.95;;;;
2019/11/03 04:16:06;;;;;;;5.450001;4.799999;;;;;;;8.8;100;93050.95;;;;
2019/11/03 04:17:08;;;;;;;5.450001;4.799999;;;;;;;8.8;100;93050.95;;;;
2019/11/03 04:18:09;;;;;;;5.450001;4.799999;;;;;;;8.8;100;93050.95;;;;
2019/11/03 04:19:10;;;;;;;5.450001;4.799999;;;;;;;8.8;100;93050.95;;;;
2019/11/03 04:20:11;;;;;;;5.299999;4.8;;;;;;;8.92;100;93035.66;;;;
2019/11/03 04:21:12;;;;;;;5.299999;4.8;;;;;;;8.92;100;93035.66;;;;
2019/11/03 04:22:13;;;;;;;5.299999;4.8;;;;;;;8.92;100;93035.66;;;;
2019/11/03 04:23:15;;;;;;;5.299999;4.8;;;;;;;8.92;100;93035.66;;;;
2019/11/03 04:24:16;;;;;;;5.299999;4.8;;;;;;;8.92;100;93035.66;;;;
2019/11/03 04:25:17;;;;;;;5.299999;4.8;;;;;;;8.92;100;93035.66;;;;
2019/11/03 04:26:18;;;;;;;5.299999;4.8;;;;;;;8.92;100;93035.66;;;;
2019/11/03 04:27:19;;;;;;;5.299999;4.8;;;;;;;8.92;100;93035.66;;;;
2019/11/03 04:28:20;;;;;;;5.299999;4.8;;;;;;;8.92;100;93035.66;;;;
2019/11/03 04:29:22;;;;;;;5.299999;4.8;;;;;;;8.92;100;93035.66;;;;
2019/11/03 04:30:23;;;;;;;4.25;3.85;;;;;;;9.04;100;93026.7;;;;
2019/11/03 04:31:24;;;;;;;4.25;3.85;;;;;;;9.04;100;93026.7;;;;
2019/11/03 04:32:28;;;;;;;4.25;3.85;;;;;;;9.04;100;93026.7;;;;
2019/11/03 04:33:31;;;;;;;4.25;3.85;;;;;;;9.04;100;93026.7;;;;
2019/11/03 04:34:35;;;;;;;4.25;3.85;;;;;;;9.04;100;93026.7;;;;
2019/11/03 04:36:44;;;;;;;4.25;3.85;;;;;;;9.04;100;93026.7;;;;
2019/11/03 04:38:54;;;;;;;4.25;3.85;;;;;;;9.04;100;93026.7;;;;
2019/11/03 04:41:04;;;;;;;4.95;3.95;;;;;;;9.08;100;92991.02;;;;
2019/11/03 04:42:37;;;;;;;4.95;3.95;;;;;;;9.08;100;92991.02;;;;
2019/11/03 04:43:39;;;;;;;4.95;3.95;;;;;;;9.08;100;92991.02;;;;
2019/11/03 04:44:48;;;;;;;4.95;3.95;;;;;;;9.08;100;92991.02;;;;
2019/11/03 04:46:16;;;;;;;4.95;3.95;;;;;;;9.08;100;92991.02;;;;
2019/11/03 04:47:31;;;;;;;4.95;3.95;;;;;;;9.08;100;92991.02;;;;
2019/11/03 04:49:15;;;;;;;4.95;3.95;;;;;;;9.08;100;92991.02;;;;
2019/11/03 04:50:30;;;;;;;4.95;3.95;;;;;;;9.08;100;92991.02;;;;
2019/11/03 04:51:39;;;;;;;5.699999;4.649999;;;;;;;9.16;100;92975.58;;;;
2019/11/03 04:54:07;;;;;;;5.699999;4.649999;;;;;;;9.16;100;92975.58;;;;
2019/11/03 04:59:16;;;;;;;5.699999;4.649999;;;;;;;9.16;100;92975.58;;;;
2019/11/03 05:00:24;;;;;;;5.699999;4.649999;;;;;;;9.16;100;92975.58;;;;
2019/11/03 05:04:01;;;;;;;4.199999;3.8;;;;;;;9.2;100;92958.72;;;;
2019/11/03 05:05:02;;;;;;;4.199999;3.8;;;;;;;9.2;100;92958.72;;;;
2019/11/03 05:06:03;;;;;;;4.199999;3.8;;;;;;;9.2;100;92958.72;;;;
2019/11/03 05:10:10;;;;;;;4.199999;3.8;;;;;;;9.2;100;92958.72;;;;
2019/11/03 05:12:02;;;;;;;4.199999;3.8;;;;;;;9.2;100;92958.72;;;;
2019/11/03 05:13:06;;;;;;;3.95;3.55;;;;;;;9.29;100;92945.84;;;;
2019/11/03 05:14:26;;;;;;;3.95;3.55;;;;;;;9.29;100;92945.84;;;;
2019/11/03 05:15:43;;;;;;;3.95;3.55;;;;;;;9.29;100;92945.84;;;;
2019/11/03 05:17:06;;;;;;;3.95;3.55;;;;;;;9.29;100;92945.84;;;;
2019/11/03 05:18:14;;;;;;;3.95;3.55;;;;;;;9.29;100;92945.84;;;;
2019/11/03 05:19:30;;;;;;;3.95;3.55;;;;;;;9.29;100;92945.84;;;;
2019/11/03 05:21:02;;;;;;;3.95;3.55;;;;;;;9.29;100;92945.84;;;;
2019/11/03 05:22:14;;;;;;;3.95;3.55;;;;;;;9.29;100;92945.84;;;;
2019/11/03 05:23:21;;;;;;;3.95;3.55;;;;;;;9.29;100;92939.51;;;;
2019/11/03 05:24:46;;;;;;;3.95;3.55;;;;;;;9.29;100;92939.51;;;;
2019/11/03 05:26:39;;;;;;;3.95;3.55;;;;;;;9.29;100;92939.51;;;;
2019/11/03 05:27:51;;;;;;;3.95;3.55;;;;;;;9.29;100;92939.51;;;;
2019/11/03 05:28:59;;;;;;;3.95;3.55;;;;;;;9.29;100;92939.51;;;;
2019/11/03 05:30:22;;;;;;;3.95;3.55;;;;;;;9.29;100;92939.51;;;;
2019/11/03 05:31:28;;;;;;;3.95;3.55;;;;;;;9.29;100;92939.51;;;;
2019/11/03 05:32:29;;;;;;;3.95;3.55;;;;;;;9.29;100;92939.51;;;;
2019/11/03 05:33:30;;;;;;;3.95;3.55;;;;;;;9.29;100;92939.51;;;;
2019/11/03 05:34:31;;;;;;;3.55;3.15;;;;;;;9.36;100;92935;;;;
2019/11/03 05:35:33;;;;;;;3.55;3.15;;;;;;;9.36;100;92935;;;;
2019/11/03 05:36:34;;;;;;;3.55;3.15;;;;;;;9.36;100;92935;;;;
2019/11/03 05:37:35;;;;;;;3.55;3.15;;;;;;;9.36;100;92935;;;;
2019/11/03 05:38:37;;;;;;;3.55;3.15;;;;;;;9.36;100;92935;;;;
2019/11/03 05:39:38;;;;;;;3.55;3.15;;;;;;;9.36;100;92935;;;;
2019/11/03 05:40:39;;;;;;;3.55;3.15;;;;;;;9.36;100;92935;;;;
2019/11/03 05:41:40;;;;;;;3.55;3.15;;;;;;;9.36;100;92935;;;;
2019/11/03 05:42:42;;;;;;;3.55;3.15;;;;;;;9.36;100;92935;;;;
2019/11/03 05:43:43;;;;;;;3.55;3.15;;;;;;;9.36;100;92935;;;;
2019/11/03 05:44:44;;;;;;;3.55;2.95;;;;;;;9.38;100;92916.66;;;;
2019/11/03 05:45:45;;;;;;;3.55;2.95;;;;;;;9.38;100;92916.66;;;;
2019/11/03 05:46:46;;;;;;;3.55;2.95;;;;;;;9.38;100;92916.66;;;;
2019/11/03 05:47:47;;;;;;;3.55;2.95;;;;;;;9.38;100;92916.66;;;;
2019/11/03 05:48:48;;;;;;;3.55;2.95;;;;;;;9.38;100;92916.66;;;;
2019/11/03 05:49:49;;;;;;;3.55;2.95;;;;;;;9.38;100;92916.66;;;;
2019/11/03 05:50:51;;;;;;;3.55;2.95;;;;;;;9.38;100;92916.66;;;;
2019/11/03 05:51:52;;;;;;;3.55;2.95;;;;;;;9.38;100;92916.66;;;;
2019/11/03 05:52:53;;;;;;;3.55;2.95;;;;;;;9.38;100;92916.66;;;;
2019/11/03 05:53:54;;;;;;;3.55;2.95;;;;;;;9.38;100;92916.66;;;;
2019/11/03 05:54:55;;;;;;;3.55;2.95;;;;;;;9.38;100;92916.66;;;;
2019/11/03 05:55:56;;;;;;;3.5;3;;;;;;;9.44;100;92910.52;;;;
2019/11/03 05:56:57;;;;;;;3.5;3;;;;;;;9.44;100;92910.52;;;;
2019/11/03 05:57:59;;;;;;;3.5;3;;;;;;;9.44;100;92910.52;;;;
2019/11/03 05:59:00;;;;;;;3.5;3;;;;;;;9.44;100;92910.52;;;;
2019/11/03 06:00:01;;;;;;;3.5;3;;;;;;;9.44;100;92910.52;;;;
2019/11/03 06:01:03;;;;;;;3.5;3;;;;;;;9.44;100;92910.52;;;;
2019/11/03 06:02:29;;;;;;;3.5;3;;;;;;;9.44;100;92910.52;;;;
2019/11/03 06:03:37;;;;;;;3.5;3;;;;;;;9.44;100;92910.52;;;;
2019/11/03 06:05:12;;;;;;;3.5;3;;;;;;;9.44;100;92910.52;;;;
2019/11/03 06:06:33;;;;;;;4.699999;2.95;;;;;;;9.43;100;92890.2;;;;
2019/11/03 06:07:35;;;;;;;4.699999;2.95;;;;;;;9.43;100;92890.2;;;;
2019/11/03 06:08:36;;;;;;;4.699999;2.95;;;;;;;9.43;100;92890.2;;;;
2019/11/03 06:09:37;;;;;;;4.699999;2.95;;;;;;;9.43;100;92890.2;;;;
2019/11/03 06:10:38;;;;;;;4.699999;2.95;;;;;;;9.43;100;92890.2;;;;
2019/11/03 06:11:39;;;;;;;4.699999;2.95;;;;;;;9.43;100;92890.2;;;;
2019/11/03 06:12:41;;;;;;;4.699999;2.95;;;;;;;9.43;100;92890.2;;;;
2019/11/03 06:13:42;;;;;;;4.699999;2.95;;;;;;;9.43;100;92890.2;;;;
2019/11/03 06:14:43;;;;;;;4.699999;2.95;;;;;;;9.43;100;92890.2;;;;
2019/11/03 06:15:44;;;;;;;4.699999;2.95;;;;;;;9.43;100;92890.2;;;;
2019/11/03 06:16:45;;;;;;;3.1;2.75;;;;;;;9.48;100;92873.44;;;;
2019/11/03 06:17:46;;;;;;;3.1;2.75;;;;;;;9.48;100;92873.44;;;;
2019/11/03 06:18:47;;;;;;;3.1;2.75;;;;;;;9.48;100;92873.44;;;;
2019/11/03 06:19:48;;;;;;;3.1;2.75;;;;;;;9.48;100;92873.44;;;;
2019/11/03 06:20:49;;;;;;;3.1;2.75;;;;;;;9.48;100;92873.44;;;;
2019/11/03 06:21:51;;;;;;;3.1;2.75;;;;;;;9.48;100;92873.44;;;;
2019/11/03 06:22:52;;;;;;;3.1;2.75;;;;;;;9.48;100;92873.44;;;;
2019/11/03 06:23:53;;;;;;;3.1;2.75;;;;;;;9.48;100;92873.44;;;;
2019/11/03 06:24:54;;;;;;;3.1;2.75;;;;;;;9.48;100;92873.44;;;;
2019/11/03 06:25:55;;;;;;;3.1;2.75;;;;;;;9.48;100;92873.44;;;;
2019/11/03 06:26:56;;;;;;;3.1;2.75;;;;;;;9.48;100;92873.44;;;;
2019/11/03 06:27:57;;;;;;;3.5;3;;;;;;;9.48;100;92875.73;;;;
2019/11/03 06:28:58;;;;;;;3.5;3;;;;;;;9.48;100;92875.73;;;;
2019/11/03 06:30:00;;;;;;;3.5;3;;;;;;;9.48;100;92875.73;;;;
2019/11/03 06:31:02;;;;;;;3.5;3;;;;;;;9.48;100;92875.73;;;;
2019/11/03 06:32:03;;;;;;;3.5;3;;;;;;;9.48;100;92875.73;;;;
2019/11/03 06:33:04;;;;;;;3.5;3;;;;;;;9.48;100;92875.73;;;;
2019/11/03 06:34:05;;;;;;;3.5;3;;;;;;;9.48;100;92875.73;;;;
2019/11/03 06:35:06;;;;;;;3.5;3;;;;;;;9.48;100;92875.73;;;;
2019/11/03 06:36:07;;;;;;;3.5;3;;;;;;;9.48;100;92875.73;;;;
2019/11/03 06:37:09;;;;;;;3.5;3;;;;;;;9.48;100;92875.73;;;;